Time;durP1;ratioP1;P1;durP2;ratioP2;P2;SDS_P1;SDS_P2;PMS_P1;PMS_P2;Temp;Humidity;BMP_temperature;BMP_pressure;BME280_temperature;BME280_humidity;BME280_pressure;Samples;Min_cycle;Max_cycle;Signal;HPM_P1;HPM_P2
2020/12/28 00:00:30;;;;;;;0.82;0.50;;;4.40;99.90;;;2.68;90.89;97415.38;4979329;28;20073;-37
2020/12/28 00:02:58;;;;;;;1.27;0.70;;;4.40;99.90;;;2.64;90.67;97420.44;4995562;28;20455;-37
2020/12/28 00:05:27;;;;;;;1.00;0.45;;;4.40;99.90;;;2.69;91.07;97411.63;4994970;28;20049;-37
2020/12/28 00:07:54;;;;;;;1.88;0.40;;;4.40;99.90;;;2.70;90.34;97419.47;4963322;28;20061;-37
2020/12/28 00:10:22;;;;;;;0.63;0.30;;;4.40;99.90;;;2.73;90.68;97420.84;4978933;28;20045;-37
2020/12/28 00:12:50;;;;;;;0.60;0.40;;;4.50;99.90;;;2.71;90.25;97410.34;5011897;28;20042;-37
2020/12/28 00:15:29;;;;;;;1.38;0.50;;;4.50;99.90;;;2.76;89.70;97411.47;4963012;28;20038;-37
2020/12/28 00:18:01;;;;;;;1.00;0.40;;;4.50;99.90;;;2.73;90.05;97415.47;5012724;28;20046;-37
2020/12/28 00:20:31;;;;;;;0.93;0.45;;;4.50;99.90;;;2.66;90.41;97412.13;4979398;28;20149;-37
2020/12/28 00:22:59;;;;;;;0.28;0.22;;;4.40;99.90;;;2.63;90.72;97416.09;4995211;28;20211;-37
2020/12/28 00:25:28;;;;;;;1.27;0.45;;;4.40;99.90;;;2.63;89.92;97412.63;4979200;28;20531;-37
2020/12/28 00:27:56;;;;;;;1.75;0.43;;;4.40;99.90;;;2.61;89.46;97404.78;4994856;28;20050;-37
2020/12/28 00:30:24;;;;;;;1.00;0.32;;;4.40;99.90;;;2.60;89.73;97403.16;4962140;28;20107;-37
2020/12/28 00:32:51;;;;;;;1.30;0.30;;;4.40;99.90;;;2.60;89.88;97400.47;4994819;28;20066;-37
2020/12/28 00:35:19;;;;;;;0.70;0.40;;;4.40;99.90;;;2.57;90.10;97409.84;4962840;28;20038;-37
2020/12/28 00:37:48;;;;;;;0.28;0.28;;;4.30;99.90;;;2.57;91.09;97400.94;4995541;28;20046;-37
2020/12/28 00:40:16;;;;;;;0.50;0.37;;;4.40;99.90;;;2.59;91.25;97406.91;4978788;28;20475;-37
2020/12/28 00:42:43;;;;;;;0.73;0.40;;;4.30;99.90;;;2.60;91.09;97400.47;4962874;28;20405;-37
2020/12/28 00:45:11;;;;;;;0.73;0.40;;;4.40;99.90;;;2.63;91.31;97401.84;4978484;28;20524;-37
2020/12/28 00:47:38;;;;;;;0.82;0.40;;;4.40;99.90;;;2.61;91.32;97403.97;4978744;28;20050;-37
2020/12/28 00:50:07;;;;;;;0.52;0.32;;;4.40;99.90;;;2.60;91.02;97408.53;4978446;28;20100;-37
2020/12/28 00:52:35;;;;;;;0.93;0.40;;;4.30;99.90;;;2.60;91.08;97397.75;4978924;28;20058;-37
2020/12/28 00:55:05;;;;;;;0.43;0.30;;;4.40;99.90;;;2.55;91.59;97390.44;4979005;28;20121;-37
2020/12/28 00:57:34;;;;;;;0.85;0.40;;;4.40;99.90;;;2.55;91.36;97393.13;4979348;28;20115;-37
2020/12/28 01:00:06;;;;;;;0.77;0.40;;;4.30;99.90;;;2.55;91.64;97400.38;4994727;28;20045;-37
2020/12/28 01:02:46;;;;;;;0.98;0.40;;;4.30;99.90;;;2.61;90.71;97412.06;4996710;28;20050;-37
2020/12/28 01:05:20;;;;;;;0.60;0.38;;;4.30;99.90;;;2.61;90.94;97410.16;4995520;28;20121;-37
2020/12/28 01:07:47;;;;;;;0.43;0.28;;;4.40;99.90;;;2.58;90.35;97405.28;4978576;28;20125;-37
2020/12/28 01:10:21;;;;;;;0.73;0.30;;;4.40;99.90;;;2.54;91.35;97401.44;4995334;28;20041;-37
2020/12/28 01:12:55;;;;;;;0.30;0.30;;;4.30;99.90;;;2.56;90.68;97397.47;4995819;28;20107;-37
2020/12/28 01:15:26;;;;;;;1.42;0.40;;;4.30;99.90;;;2.57;90.63;97403.63;4994780;28;20125;-37
2020/12/28 01:17:54;;;;;;;0.68;0.40;;;4.30;99.90;;;2.50;89.95;97405.69;4994652;28;20321;-37
2020/12/28 01:20:32;;;;;;;0.30;0.30;;;4.30;99.90;;;2.39;90.85;97397.44;5011789;28;20042;-37
2020/12/28 01:23:01;;;;;;;0.40;0.30;;;4.30;99.90;;;2.41;90.76;97406.09;4978221;28;20081;-37
2020/12/28 01:25:36;;;;;;;0.80;0.30;;;4.20;99.90;;;2.42;90.44;97401.50;5010705;28;20411;-37
2020/12/28 01:28:04;;;;;;;0.45;0.30;;;4.20;99.90;;;2.42;90.73;97413.09;4962701;28;20049;-37
2020/12/28 01:30:34;;;;;;;0.73;0.30;;;4.20;99.90;;;2.42;90.46;97418.47;4963656;28;20068;-37
2020/12/28 01:33:22;;;;;;;0.98;0.50;;;4.20;99.90;;;2.41;90.94;97421.41;4969942;28;20057;-36
2020/12/28 01:35:55;;;;;;;0.52;0.32;;;4.20;99.90;;;2.37;91.06;97429.13;4995406;28;20049;-37
2020/12/28 01:38:22;;;;;;;0.20;0.20;;;4.20;99.90;;;2.36;91.03;97438.28;4978288;28;20100;-37
2020/12/28 01:40:49;;;;;;;0.90;0.47;;;4.20;99.90;;;2.32;90.64;97434.44;4980022;28;20052;-37
2020/12/28 01:43:28;;;;;;;1.45;0.43;;;4.10;99.90;;;2.32;91.36;97422.88;4984639;28;20455;-37
2020/12/28 01:48:40;;;;;;;0.80;0.47;;;4.10;99.90;;;2.28;91.09;97419.84;5000199;28;20073;-37
2020/12/28 01:51:11;;;;;;;0.30;0.30;;;4.10;99.90;;;2.30;90.55;97418.56;4982859;28;20054;-37
2020/12/28 01:53:41;;;;;;;1.50;0.45;;;4.10;99.90;;;2.22;90.51;97410.06;4982329;28;20107;-37
2020/12/28 01:56:21;;;;;;;1.95;0.43;;;4.10;99.90;;;2.23;90.74;97423.25;4984040;28;20106;-37
2020/12/28 01:58:52;;;;;;;1.30;0.45;;;4.00;99.90;;;2.21;90.57;97416.50;5014240;28;20054;-37
2020/12/28 02:01:34;;;;;;;0.88;0.38;;;4.00;99.90;;;2.21;90.82;97428.06;4983394;28;20050;-37
2020/12/28 02:04:02;;;;;;;0.47;0.30;;;4.00;99.90;;;2.17;90.09;97423.41;4997687;28;20057;-37
2020/12/28 02:06:36;;;;;;;0.68;0.30;;;4.00;99.90;;;2.15;90.68;97429.84;4998737;28;20100;-37
2020/12/28 02:09:05;;;;;;;2.22;0.40;;;4.00;99.90;;;2.14;90.76;97422.00;4966662;28;20065;-37
2020/12/28 02:11:33;;;;;;;0.35;0.20;;;4.00;99.90;;;2.09;90.90;97420.03;4981864;28;20053;-38
2020/12/28 02:14:02;;;;;;;0.57;0.30;;;3.90;99.90;;;2.09;90.75;97428.09;4966092;28;20412;-37
2020/12/28 02:16:39;;;;;;;0.40;0.20;;;3.90;99.90;;;2.07;91.35;97432.91;4984074;28;20056;-37
2020/12/28 02:19:12;;;;;;;1.02;0.20;;;3.90;99.90;;;2.09;92.21;97436.16;4982878;28;20104;-37
2020/12/28 02:21:44;;;;;;;0.20;0.20;;;3.90;99.90;;;2.09;91.63;97440.75;4967010;28;20072;-37
2020/12/28 02:24:16;;;;;;;0.63;0.38;;;3.90;99.90;;;2.10;91.81;97435.13;4982099;28;20254;-37
2020/12/28 02:26:47;;;;;;;0.93;0.30;;;3.90;99.90;;;2.09;92.63;97430.78;4982837;28;20543;-37
2020/12/28 02:29:15;;;;;;;0.52;0.30;;;3.90;99.90;;;2.10;91.98;97434.31;4981254;28;20072;-37
2020/12/28 02:31:43;;;;;;;0.75;0.40;;;3.90;99.90;;;2.10;92.75;97435.13;5013170;28;20038;-37
2020/12/28 02:34:11;;;;;;;0.55;0.32;;;3.90;99.90;;;2.12;92.46;97432.19;4981198;28;20052;-37
2020/12/28 02:36:48;;;;;;;1.25;0.30;;;3.90;99.90;;;2.12;92.19;97429.50;4969311;28;20428;-37
2020/12/28 02:39:16;;;;;;;0.47;0.30;;;3.90;99.90;;;2.12;92.67;97430.34;4981296;28;20401;-37
2020/12/28 02:41:44;;;;;;;1.33;0.45;;;3.90;99.90;;;2.12;92.55;97440.25;4997301;28;20057;-37
2020/12/28 02:44:21;;;;;;;0.93;0.40;;;3.90;99.90;;;2.13;93.10;97433.81;4968712;28;20121;-37
2020/12/28 02:46:58;;;;;;;0.75;0.30;;;3.90;99.90;;;2.12;92.87;97433.03;4983329;28;20049;-37
2020/12/28 02:49:35;;;;;;;0.55;0.28;;;3.90;99.90;;;2.17;93.08;97439.56;4983513;28;20524;-37
2020/12/28 02:52:12;;;;;;;0.40;0.30;;;3.90;99.90;;;2.19;93.58;97440.13;4983093;28;20057;-37
2020/12/28 02:54:49;;;;;;;0.85;0.40;;;4.00;99.90;;;2.22;93.20;97434.25;4983182;28;20546;-37
2020/12/28 02:57:26;;;;;;;1.67;0.43;;;4.00;99.90;;;2.24;93.52;97440.22;4983469;28;20136;-37
2020/12/28 03:00:06;;;;;;;0.28;0.20;;;4.00;99.90;;;2.25;93.66;97439.16;4983405;28;20452;-37
2020/12/28 03:02:44;;;;;;;0.82;0.30;;;4.00;99.90;;;2.29;93.68;97443.00;4998096;28;20061;-37
2020/12/28 03:05:21;;;;;;;0.88;0.30;;;4.10;99.90;;;2.30;93.57;97440.06;4998148;28;20272;-37
2020/12/28 03:07:58;;;;;;;1.17;0.40;;;4.10;99.90;;;2.31;93.46;97448.94;4968699;28;20058;-37
2020/12/28 03:10:35;;;;;;;1.42;0.50;;;4.10;99.90;;;2.30;93.45;97434.69;4968446;28;20120;-37
2020/12/28 03:13:13;;;;;;;1.83;0.50;;;4.10;99.90;;;2.32;93.25;97442.50;4997902;28;20065;-37
2020/12/28 03:15:50;;;;;;;1.65;0.40;;;4.10;99.90;;;2.36;93.78;97429.41;4968472;28;20125;-37
2020/12/28 03:18:28;;;;;;;1.15;0.50;;;4.10;99.90;;;2.33;93.11;97428.00;4968667;28;20056;-37
2020/12/28 03:21:05;;;;;;;0.27;0.20;;;4.10;99.90;;;2.35;93.39;97425.06;5012716;28;20578;-37
2020/12/28 03:23:42;;;;;;;0.38;0.30;;;4.10;99.90;;;2.35;93.56;97420.50;4982721;28;20530;-37
2020/12/28 03:26:20;;;;;;;0.77;0.40;;;4.10;99.90;;;2.36;93.37;97416.75;4983433;28;20141;-37
2020/12/28 03:29:04;;;;;;;0.88;0.38;;;4.10;99.90;;;2.37;93.62;97417.56;4985055;28;20084;-37
2020/12/28 03:31:42;;;;;;;0.93;0.50;;;4.10;99.90;;;2.39;93.40;97420.84;4997545;28;20075;-37
2020/12/28 03:34:19;;;;;;;0.40;0.40;;;4.10;99.90;;;2.38;93.87;97420.00;4997210;28;20060;-37
2020/12/28 03:36:57;;;;;;;1.02;0.50;;;4.20;99.90;;;2.37;92.72;97423.75;4983113;28;20416;-37
2020/12/28 03:39:34;;;;;;;0.40;0.30;;;4.10;99.90;;;2.36;92.87;97419.44;4968231;28;20050;-37
2020/12/28 03:42:11;;;;;;;0.68;0.38;;;4.10;99.90;;;2.38;93.96;97430.75;4982877;28;20054;-37
2020/12/28 03:44:48;;;;;;;0.93;0.50;;;4.20;99.90;;;2.38;92.92;97427.28;4997008;28;20069;-37
2020/12/28 03:47:35;;;;;;;1.15;0.55;;;4.20;99.90;;;2.35;93.49;97433.94;4971988;28;20119;-37
2020/12/28 03:50:12;;;;;;;1.17;0.40;;;4.10;99.90;;;2.39;93.30;97436.97;4982456;28;20050;-37
2020/12/28 03:52:49;;;;;;;0.85;0.50;;;4.20;99.90;;;2.39;93.19;97442.34;4982511;28;20057;-37
2020/12/28 03:55:26;;;;;;;1.25;0.50;;;4.20;99.90;;;2.39;93.53;97450.44;4982538;28;20136;-37
2020/12/28 03:58:07;;;;;;;1.02;0.57;;;4.20;99.90;;;2.40;93.77;97460.97;4983273;28;20125;-37
2020/12/28 04:00:44;;;;;;;0.65;0.38;;;4.20;99.90;;;2.39;93.38;97455.81;4997136;28;20054;-37
2020/12/28 04:03:21;;;;;;;1.55;0.50;;;4.20;99.90;;;2.41;93.36;97462.59;4996469;28;20050;-36
2020/12/28 04:08:46;;;;;;;0.93;0.52;;;4.20;99.90;;;2.41;93.00;97464.47;4998431;28;20057;-37
2020/12/28 04:11:23;;;;;;;1.40;0.60;;;4.20;99.90;;;2.41;93.25;97467.97;4982146;28;20045;-37
2020/12/28 04:14:00;;;;;;;1.90;0.45;;;4.20;99.90;;;2.41;93.77;97467.97;4981742;28;20061;-37
2020/12/28 04:16:27;;;;;;;1.90;0.77;;;4.20;99.90;;;2.41;93.77;97462.59;4979297;28;20092;-37
2020/12/28 04:18:55;;;;;;;1.33;0.70;;;4.20;99.90;;;2.40;93.54;97458.28;4995557;28;20554;-37
2020/12/28 04:21:22;;;;;;;1.20;0.73;;;4.20;99.90;;;2.38;93.61;97460.38;4995431;28;20050;-37
2020/12/28 04:23:49;;;;;;;2.03;0.50;;;4.20;99.90;;;2.38;94.02;97457.66;4995038;28;20042;-37
2020/12/28 04:26:17;;;;;;;2.60;0.95;;;4.20;99.90;;;2.39;93.57;97464.72;4979150;28;20054;-37
2020/12/28 04:28:46;;;;;;;1.45;0.80;;;4.20;99.90;;;2.39;94.03;97461.19;4963079;28;20038;-37
2020/12/28 04:31:13;;;;;;;1.08;0.60;;;4.20;99.90;;;2.36;93.55;97457.09;4979577;28;20049;-37
2020/12/28 04:33:41;;;;;;;1.52;0.70;;;4.10;99.90;;;2.38;93.24;97454.97;4962649;28;20034;-37
2020/12/28 04:36:08;;;;;;;2.63;0.88;;;4.20;99.90;;;2.40;93.74;97457.44;4962672;28;20076;-37
2020/12/28 04:38:35;;;;;;;1.70;0.82;;;4.20;99.90;;;2.38;93.45;97463.06;4979000;28;20419;-38
2020/12/28 04:41:03;;;;;;;1.17;0.60;;;4.20;99.90;;;2.38;93.68;97460.38;4962746;28;20508;-38
2020/12/28 04:43:30;;;;;;;3.50;1.10;;;4.20;99.90;;;2.34;94.04;97461.09;4994821;28;20042;-37
2020/12/28 04:46:03;;;;;;;2.00;1.02;;;4.20;99.90;;;2.40;93.97;97462.81;4978898;28;20056;-37
2020/12/28 04:48:33;;;;;;;2.47;0.90;;;4.20;99.90;;;2.41;94.00;97457.22;5011195;28;20053;-38
2020/12/28 04:51:02;;;;;;;1.83;0.85;;;4.20;99.90;;;2.41;93.48;97459.06;5029445;23;20149;-40
2020/12/28 04:53:30;;;;;;;1.65;0.85;;;4.20;99.90;;;2.37;93.92;97453.34;4967259;28;20070;-40
2020/12/28 04:55:58;;;;;;;1.65;0.75;;;4.20;99.90;;;2.40;93.87;97442.13;4975052;28;20555;-40
2020/12/28 04:58:26;;;;;;;2.25;0.90;;;4.20;99.90;;;2.41;93.88;97438.38;4943167;28;20449;-40
2020/12/28 05:01:03;;;;;;;;;;;4.20;99.90;;;2.41;93.55;97437.56;4975467;28;20042;-40
2020/12/28 05:03:30;;;;;;;1.85;0.60;;;4.20;99.90;;;2.38;93.21;97436.16;4991058;28;19921;-40
2020/12/28 05:05:59;;;;;;;1.70;0.80;;;4.20;99.90;;;2.33;93.27;97438.75;4974851;28;20560;-40
2020/12/28 05:08:26;;;;;;;0.95;0.50;;;4.20;99.90;;;2.30;93.49;97434.69;4975246;28;20169;-40
2020/12/28 05:10:54;;;;;;;1.80;0.70;;;4.10;99.90;;;2.28;93.32;97433.28;4959069;28;20049;-40
2020/12/28 05:13:21;;;;;;;1.48;0.70;;;4.10;99.90;;;2.27;93.24;97431.66;4927049;28;20046;-40
2020/12/28 05:15:55;;;;;;;1.47;0.80;;;4.10;99.90;;;2.25;93.44;97431.88;4974552;28;20608;-40
2020/12/28 05:18:22;;;;;;;0.95;0.57;;;4.10;99.90;;;2.24;93.31;97432.16;4974767;28;20451;-40
2020/12/28 05:20:51;;;;;;;1.60;0.80;;;4.00;99.90;;;2.19;93.90;97429.38;4942813;28;20046;-40
2020/12/28 05:23:20;;;;;;;2.38;0.65;;;4.00;99.90;;;2.12;93.63;97437.56;4974541;28;20078;-40
2020/12/28 05:25:51;;;;;;;0.73;0.40;;;4.00;99.90;;;2.05;93.77;97435.03;4974907;28;20052;-40
2020/12/28 05:28:32;;;;;;;1.45;0.70;;;3.90;99.90;;;2.00;93.49;97438.44;4991006;28;20046;-40
2020/12/28 05:31:04;;;;;;;0.82;0.57;;;3.80;99.90;;;1.94;93.60;97443.97;4974543;28;20042;-40
2020/12/28 05:33:34;;;;;;;1.80;0.90;;;3.80;99.90;;;1.86;92.89;97445.16;4990618;28;20046;-40
2020/12/28 05:36:02;;;;;;;2.90;0.90;;;3.70;99.90;;;1.75;93.17;97446.00;4974470;28;20069;-40
2020/12/28 05:38:32;;;;;;;;;;;3.60;99.90;;;1.61;92.94;97446.25;4991386;28;20042;-40
2020/12/28 05:41:09;;;;;;;1.48;0.70;;;3.50;99.90;;;1.44;93.02;97452.34;4990762;28;20300;-40
2020/12/28 05:43:40;;;;;;;1.65;0.85;;;3.40;99.90;;;1.34;92.95;97443.28;4975022;28;20053;-40
2020/12/28 05:46:07;;;;;;;1.48;0.75;;;3.30;99.90;;;1.23;92.53;97444.94;4958495;28;20069;-40
2020/12/28 05:48:36;;;;;;;1.30;0.70;;;3.20;99.90;;;1.11;92.50;97442.25;4974719;28;20464;-40
2020/12/28 05:51:03;;;;;;;1.35;0.60;;;3.00;99.90;;;1.02;92.94;97444.47;4991576;28;20038;-40
2020/12/28 05:53:40;;;;;;;1.33;0.75;;;3.00;99.90;;;0.92;92.77;97450.41;4958323;28;20038;-40
2020/12/28 05:56:09;;;;;;;1.33;0.63;;;2.90;99.90;;;0.86;92.90;97464.78;4974558;28;20120;-40
2020/12/28 05:58:42;;;;;;;1.40;0.55;;;2.80;99.90;;;0.73;92.90;97462.28;4974487;28;20038;-40
2020/12/28 06:01:11;;;;;;;1.42;0.90;;;2.70;99.90;;;0.63;92.69;97463.69;4974298;28;20129;-40
2020/12/28 06:03:48;;;;;;;2.55;0.70;;;2.60;99.90;;;0.54;93.00;97462.38;4991628;28;20421;-40
2020/12/28 06:06:17;;;;;;;2.13;0.95;;;2.50;99.90;;;0.52;93.18;97467.97;4974266;28;20074;-40
2020/12/28 06:08:44;;;;;;;1.63;0.63;;;2.50;99.90;;;0.56;93.21;97457.59;4974323;28;20042;-40
2020/12/28 06:11:12;;;;;;;1.13;0.70;;;2.50;99.90;;;0.62;93.62;97466.56;4958191;28;20546;-40
2020/12/28 06:13:43;;;;;;;2.65;1.00;;;2.50;99.90;;;0.73;94.01;97467.66;4990334;28;20049;-40
2020/12/28 06:16:23;;;;;;;1.88;0.80;;;2.60;99.90;;;0.79;94.60;97469.41;4974709;28;20046;-40
2020/12/28 06:18:59;;;;;;;1.67;0.90;;;2.70;99.90;;;0.88;94.48;97473.41;4990445;28;20038;-40
2020/12/28 06:21:37;;;;;;;2.00;0.88;;;2.70;99.90;;;0.94;95.47;97471.66;4958217;28;20083;-40
2020/12/28 06:24:04;;;;;;;2.17;0.67;;;2.80;99.90;;;0.96;95.02;97472.25;4974158;28;20571;-40
2020/12/28 06:26:32;;;;;;;1.77;0.75;;;2.80;99.90;;;1.01;95.12;97477.72;4958164;28;20042;-40
2020/12/28 06:29:08;;;;;;;2.35;0.70;;;2.90;99.90;;;1.00;95.22;97471.53;4977556;28;20057;-40
2020/12/28 06:31:36;;;;;;;1.08;0.68;;;2.90;99.90;;;1.02;95.32;97482.06;4961567;28;20042;-40
2020/12/28 06:34:03;;;;;;;1.88;0.70;;;2.90;99.90;;;1.04;95.81;97473.75;4961639;28;20122;-40
2020/12/28 06:36:30;;;;;;;1.77;0.90;;;2.90;99.90;;;1.13;95.30;97475.06;4961662;28;20038;-40
2020/12/28 06:39:00;;;;;;;1.35;0.70;;;3.00;99.90;;;1.19;95.45;97475.97;4961801;28;20049;-40
2020/12/28 06:41:30;;;;;;;1.83;0.80;;;3.00;99.90;;;1.22;95.50;97470.97;4977570;28;20074;-40
2020/12/28 06:44:06;;;;;;;1.63;0.68;;;3.00;99.90;;;1.25;95.65;97485.81;4977220;28;20047;-40
2020/12/28 06:46:37;;;;;;;1.45;0.60;;;3.10;99.90;;;1.23;95.72;97483.34;4977479;28;20046;-40
2020/12/28 06:49:05;;;;;;;1.23;0.60;;;3.10;99.90;;;1.23;95.46;97488.72;4961186;28;20536;-40
2020/12/28 06:51:32;;;;;;;2.00;0.63;;;3.10;99.90;;;1.22;95.38;97487.06;4994533;28;20052;-40
2020/12/28 06:53:59;;;;;;;1.17;0.60;;;3.10;99.90;;;1.19;95.44;97487.53;4977069;28;20173;-40
2020/12/28 06:56:27;;;;;;;1.13;0.50;;;3.10;99.90;;;1.12;94.72;97484.16;4993294;28;20053;-40
2020/12/28 06:59:04;;;;;;;1.60;0.73;;;3.00;99.90;;;1.06;95.12;97488.59;4977339;28;20070;-40
2020/12/28 07:01:31;;;;;;;1.52;0.80;;;2.90;99.90;;;1.01;94.81;97496.53;4961426;28;20130;-40
2020/12/28 07:03:58;;;;;;;0.95;0.50;;;2.90;99.90;;;0.98;94.39;97502.38;4976919;28;20038;-40
2020/12/28 07:06:25;;;;;;;0.80;0.60;;;2.90;99.90;;;0.93;94.98;97502.22;4976966;28;20116;-40
2020/12/28 07:09:07;;;;;;;2.65;0.65;;;2.80;99.90;;;0.88;94.60;97497.56;4977736;28;20050;-40
2020/12/28 07:11:35;;;;;;;1.08;0.63;;;2.80;99.90;;;0.88;94.14;97500.25;4960807;28;20069;-40
2020/12/28 07:14:05;;;;;;;3.17;0.90;;;2.80;99.90;;;0.84;94.34;97496.38;4994003;28;20505;-40
2020/12/28 07:16:33;;;;;;;0.73;0.50;;;2.80;99.90;;;0.83;94.22;97497.44;4977007;28;20429;-40
2020/12/28 07:19:12;;;;;;;1.40;0.77;;;2.70;99.90;;;0.84;94.21;97505.25;4976781;28;20034;-40
2020/12/28 07:21:39;;;;;;;1.02;0.65;;;2.70;99.90;;;0.90;94.39;97508.06;4976846;28;20105;-40
2020/12/28 07:24:07;;;;;;;1.27;0.67;;;2.80;99.90;;;0.99;94.61;97507.47;4992634;28;20038;-40
2020/12/28 07:26:37;;;;;;;1.13;0.70;;;2.80;99.90;;;1.07;94.67;97511.69;4960626;28;21017;-40
2020/12/28 07:29:12;;;;;;;1.40;0.70;;;2.90;99.90;;;1.11;94.24;97517.44;4976700;28;20129;-40
2020/12/28 07:31:40;;;;;;;0.82;0.32;;;2.90;99.90;;;1.20;94.69;97524.09;4992662;28;20046;-40
2020/12/28 07:34:19;;;;;;;1.50;0.80;;;3.00;99.90;;;1.31;94.31;97532.38;4976193;28;20046;-40
2020/12/28 07:36:53;;;;;;;1.30;0.80;;;3.10;99.90;;;1.34;94.49;97523.88;4992558;28;20093;-40
2020/12/28 07:39:20;;;;;;;0.60;0.40;;;3.10;99.90;;;1.39;94.96;97524.78;4976081;28;20042;-40
2020/12/28 07:41:47;;;;;;;1.52;0.57;;;3.20;99.90;;;1.41;94.38;97525.38;4976495;28;20513;-40
2020/12/28 07:44:16;;;;;;;0.68;0.50;;;3.20;99.90;;;1.45;94.27;97525.72;4944104;28;20042;-40
2020/12/28 07:46:52;;;;;;;;;;;3.30;99.90;;;1.50;93.37;97525.84;4994392;28;20072;-40
2020/12/28 07:49:23;;;;;;;1.38;0.55;;;3.30;99.90;;;1.49;93.06;97521.53;4992398;28;19925;-40
2020/12/28 07:52:10;;;;;;;1.17;0.47;;;3.30;99.90;;;1.51;93.43;97526.69;4992443;28;20057;-40
2020/12/28 07:54:51;;;;;;;1.60;0.50;;;3.30;99.90;;;1.55;93.12;97533.22;4993232;28;20061;-40
2020/12/28 07:57:39;;;;;;;0.77;0.45;;;3.40;99.90;;;1.56;92.92;97529.47;4993572;28;20126;-40
2020/12/28 08:00:08;;;;;;;0.95;0.60;;;3.40;99.90;;;1.53;92.70;97530.75;4992137;28;20043;-40
2020/12/28 08:03:01;;;;;;;2.10;0.68;;;3.40;99.90;;;1.50;92.24;97525.84;4975981;28;20042;-40
2020/12/28 08:05:31;;;;;;;0.50;0.50;;;3.40;99.90;;;1.47;92.44;97520.94;4976055;28;20057;-40
2020/12/28 08:07:58;;;;;;;2.55;0.73;;;3.30;99.90;;;1.40;92.35;97520.25;4960056;28;20066;-40
2020/12/28 08:10:25;;;;;;;1.30;0.50;;;3.30;99.90;;;1.33;92.43;97524.94;4975782;28;20043;-40
2020/12/28 08:15:33;;;;;;;1.00;0.65;;;3.20;99.90;;;1.30;91.13;97515.47;4992899;28;20539;-40
2020/12/28 08:18:12;;;;;;;1.67;0.55;;;3.20;99.90;;;1.28;91.04;97509.50;4975663;28;20498;-40
2020/12/28 08:20:39;;;;;;;;;;;3.10;99.90;;;1.21;90.90;97514.19;4992476;28;20062;-40
2020/12/28 08:23:07;;;;;;;1.48;0.65;;;3.10;99.90;;;1.19;90.83;97518.94;4959561;28;19922;-40
2020/12/28 08:25:36;;;;;;;2.95;0.88;;;3.10;99.90;;;1.15;90.93;97513.22;4975409;28;20141;-40
2020/12/28 08:28:04;;;;;;;3.00;0.80;;;3.00;99.90;;;1.11;90.89;97520.13;4975786;28;20042;-40
2020/12/28 08:30:33;;;;;;;2.25;0.80;;;3.00;99.90;;;1.09;91.12;97514.16;4959315;28;20050;-40
2020/12/28 08:33:01;;;;;;;2.03;1.00;;;3.00;99.90;;;1.09;90.99;97523.03;4991525;28;20042;-40
2020/12/28 08:35:30;;;;;;;2.90;0.93;;;2.90;99.90;;;1.08;90.86;97513.34;4959456;28;20042;-40
2020/12/28 08:37:58;;;;;;;2.17;0.63;;;2.90;99.90;;;1.12;90.67;97519.88;4991593;28;20042;-40
2020/12/28 08:40:27;;;;;;;1.70;0.70;;;2.90;99.90;;;1.15;91.01;97532.03;4975190;28;20152;-40
2020/12/28 08:42:57;;;;;;;2.47;0.88;;;3.00;99.90;;;1.24;91.13;97532.50;4991438;28;20121;-40
2020/12/28 08:45:27;;;;;;;1.45;0.90;;;3.00;99.90;;;1.29;90.65;97538.81;4991273;28;20452;-40
2020/12/28 08:47:58;;;;;;;1.17;0.60;;;3.00;99.90;;;1.40;90.75;97542.53;4975148;28;20042;-40
2020/12/28 08:50:35;;;;;;;1.73;0.80;;;3.10;99.90;;;1.46;90.71;97546.19;4990597;28;20155;-40
2020/12/28 08:53:02;;;;;;;3.95;1.08;;;3.20;99.90;;;1.54;90.64;97553.88;4992380;28;20062;-40
2020/12/28 08:55:29;;;;;;;2.58;1.33;;;3.30;99.90;;;1.65;90.85;97559.50;4975202;28;20409;-40
2020/12/28 08:57:59;;;;;;;2.60;1.30;;;3.40;99.90;;;1.85;90.48;97559.13;4975147;28;20057;-40
2020/12/28 09:00:28;;;;;;;1.73;0.88;;;3.50;99.90;;;2.05;90.23;97563.31;4975496;28;20121;-40
2020/12/28 09:02:59;;;;;;;2.20;0.98;;;3.70;99.90;;;2.25;90.47;97573.66;4974930;28;20577;-40
2020/12/28 09:05:30;;;;;;;2.22;0.90;;;3.80;99.90;;;2.47;90.62;97570.31;4974658;28;20100;-40
2020/12/28 09:07:58;;;;;;;4.03;1.08;;;4.00;99.90;;;2.61;89.30;97568.97;4991342;28;20054;-40
2020/12/28 09:10:25;;;;;;;2.78;1.20;;;4.20;99.90;;;2.69;85.83;97571.28;4991026;28;20038;-40
2020/12/28 09:12:53;;;;;;;1.95;1.00;;;4.30;99.90;;;2.72;86.79;97570.81;4990923;28;20173;-40
2020/12/28 09:15:20;;;;;;;2.38;1.10;;;4.30;99.90;;;2.76;86.35;97567.63;4974830;28;20444;-40
2020/12/28 09:17:48;;;;;;;1.35;0.90;;;4.40;99.90;;;2.83;86.07;97568.28;4992299;28;20456;-40
2020/12/28 09:20:15;;;;;;;2.53;1.10;;;4.40;99.90;;;2.86;85.83;97559.72;4974735;28;20047;-40
2020/12/28 09:22:42;;;;;;;1.60;0.88;;;4.50;99.90;;;2.90;85.62;97557.38;4958690;28;20058;-40
2020/12/28 09:25:10;;;;;;;2.30;1.00;;;4.50;99.90;;;2.94;84.89;97556.66;4974806;28;20042;-40
2020/12/28 09:27:37;;;;;;;;;;;4.50;99.90;;;2.95;84.71;97557.47;4975236;28;20133;-40
2020/12/28 09:30:07;;;;;;;2.17;0.90;;;4.60;99.90;;;3.02;84.38;97553.56;4974804;28;20403;-40
2020/12/28 09:32:39;;;;;;;3.35;1.10;;;4.60;99.90;;;3.08;83.30;97548.25;4991004;28;20070;-40
2020/12/28 09:35:07;;;;;;;2.45;1.10;;;4.70;99.90;;;3.14;83.57;97549.97;4990815;28;20093;-42
2020/12/28 09:37:35;;;;;;;1.65;0.90;;;4.70;99.90;;;3.22;83.98;97548.75;4974433;28;20043;-40
2020/12/28 09:40:05;;;;;;;2.28;0.90;;;4.80;99.90;;;3.27;83.42;97544.25;4974859;28;20038;-40
2020/12/28 09:42:33;;;;;;;3.13;1.25;;;4.80;99.90;;;3.34;82.80;97543.28;4974633;28;20050;-40
2020/12/28 09:45:00;;;;;;;1.98;1.00;;;4.90;99.90;;;3.38;82.70;97547.94;4974507;28;20579;-40
2020/12/28 09:47:28;;;;;;;1.50;0.70;;;4.90;99.90;;;3.37;83.19;97540.09;4992181;28;20046;-40
2020/12/28 09:49:55;;;;;;;2.47;1.10;;;5.00;99.90;;;3.38;82.51;97542.53;4958325;28;20043;-40
2020/12/28 09:52:22;;;;;;;3.25;1.02;;;5.00;99.90;;;3.41;82.69;97550.13;4990781;28;20074;-40
2020/12/28 09:54:50;;;;;;;2.13;0.82;;;5.00;99.90;;;3.49;81.02;97540.81;4990578;28;20038;-40
2020/12/28 09:57:17;;;;;;;3.25;1.02;;;5.10;99.90;;;3.53;80.19;97550.03;4974696;28;20046;-40
2020/12/28 09:59:44;;;;;;;2.88;0.80;;;5.20;99.90;;;3.55;80.79;97539.00;4991651;28;20404;-40
2020/12/28 10:02:11;;;;;;;3.38;1.10;;;5.20;99.90;;;3.58;80.46;97535.81;4959199;28;20253;-40
2020/12/28 10:04:38;;;;;;;2.47;1.25;;;5.20;99.90;;;3.54;81.08;97532.81;4977857;28;20501;-40
2020/12/28 10:07:05;;;;;;;1.65;0.85;;;5.20;99.90;;;3.58;81.51;97543.88;4994388;28;20047;-40
2020/12/28 10:09:33;;;;;;;1.55;0.90;;;5.20;99.90;;;3.63;79.83;97548.56;4994254;28;20421;-40
2020/12/28 10:12:00;;;;;;;2.55;1.20;;;5.20;99.90;;;3.57;80.80;97555.75;4994100;28;20042;-40
2020/12/28 10:14:27;;;;;;;1.83;0.82;;;5.20;99.90;;;3.56;80.81;97557.63;4977852;28;20049;-40
2020/12/28 10:16:54;;;;;;;1.85;0.90;;;5.20;99.90;;;3.48;80.67;97557.22;4961975;28;20146;-40
2020/12/28 10:19:21;;;;;;;2.03;1.10;;;5.10;99.90;;;3.37;80.48;97562.47;4978108;28;20472;-40
2020/12/28 10:21:49;;;;;;;2.50;0.93;;;5.10;99.90;;;3.28;80.79;97559.38;4978040;28;20112;-40
2020/12/28 10:24:17;;;;;;;2.40;0.88;;;5.00;99.90;;;3.20;81.15;97549.00;4977881;28;20073;-40
2020/12/28 10:26:44;;;;;;;2.10;1.10;;;5.00;99.90;;;3.11;80.70;97548.59;4977680;28;20057;-40
2020/12/28 10:29:11;;;;;;;2.47;0.80;;;4.90;99.90;;;3.02;81.58;97544.66;4977777;28;20316;-40
2020/12/28 10:31:38;;;;;;;2.88;1.00;;;4.80;99.90;;;2.99;80.81;97540.56;4993598;28;20039;-40
2020/12/28 10:34:05;;;;;;;2.55;0.90;;;4.80;99.90;;;2.92;82.10;97533.72;4977511;28;20050;-40
2020/12/28 10:36:33;;;;;;;1.70;0.73;;;4.70;99.90;;;2.89;82.21;97532.31;4977501;28;20046;-40
2020/12/28 10:39:00;;;;;;;2.38;0.90;;;4.70;99.90;;;2.88;82.33;97533.38;4977718;28;20046;-40
2020/12/28 10:41:33;;;;;;;2.03;0.63;;;4.60;99.90;;;2.88;81.71;97518.03;4994732;28;20408;-40
2020/12/28 10:44:01;;;;;;;1.77;0.70;;;4.70;99.90;;;2.87;82.07;97520.97;4977311;28;20050;-40
2020/12/28 10:46:34;;;;;;;1.52;0.73;;;4.60;99.90;;;2.86;81.74;97513.94;4977358;28;20108;-40
2020/12/28 10:49:01;;;;;;;2.30;0.70;;;4.60;99.90;;;2.83;82.25;97520.66;4977865;28;20170;-40
2020/12/28 10:51:28;;;;;;;2.43;1.00;;;4.60;99.90;;;2.86;82.23;97522.03;4995683;28;20100;-40
2020/12/28 10:53:56;;;;;;;1.95;0.90;;;4.60;99.90;;;2.86;83.17;97517.47;4960917;28;20133;-40
2020/12/28 10:56:27;;;;;;;1.33;0.80;;;4.60;99.90;;;2.88;83.56;97520.72;4977632;28;20109;-40
2020/12/28 10:58:56;;;;;;;1.83;0.80;;;4.60;99.90;;;2.93;83.02;97525.41;4993429;28;20050;-40